sensor_id;sensor_type;location;lat;lon;timestamp;pressure;altitude;pressure_sealevel;temperature;humidity
59829;BME280;45708;51.848;107.620;2023-08-06T00:04:03;93750.81;;;17.58;100.00
59829;BME280;45708;51.848;107.620;2023-08-06T00:09:04;93750.63;;;17.55;100.00
59829;BME280;45708;51.848;107.620;2023-08-06T00:14:05;93761.72;;;17.62;100.00
59829;BME280;45708;51.848;107.620;2023-08-06T00:19:06;93765.38;;;17.66;100.00
59829;BME280;45708;51.848;107.620;2023-08-06T00:24:07;93765.50;;;17.75;100.00
59829;BME280;45708;51.848;107.620;2023-08-06T00:29:07;93759.38;;;17.74;100.00
59829;BME280;45708;51.848;107.620;2023-08-06T00:34:08;93782.06;;;17.90;100.00
59829;BME280;45708;51.848;107.620;2023-08-06T00:39:09;93790.09;;;18.04;100.00
59829;BME280;45708;51.848;107.620;2023-08-06T00:44:10;93783.56;;;18.10;100.00
59829;BME280;45708;51.848;107.620;2023-08-06T00:49:11;93790.97;;;18.13;100.00
59829;BME280;45708;51.848;107.620;2023-08-06T00:54:12;93778.19;;;18.10;100.00
59829;BME280;45708;51.848;107.620;2023-08-06T00:59:13;93790.69;;;18.29;100.00
59829;BME280;45708;51.848;107.620;2023-08-06T01:04:14;93789.78;;;18.33;100.00
59829;BME280;45708;51.848;107.620;2023-08-06T01:09:31;93785.03;;;18.16;100.00
59829;BME280;45708;51.848;107.620;2023-08-06T01:19:57;93781.94;;;18.37;100.00
59829;BME280;45708;51.848;107.620;2023-08-06T01:24:58;93778.78;;;18.35;100.00
59829;BME280;45708;51.848;107.620;2023-08-06T01:30:05;93783.22;;;18.53;100.00
59829;BME280;45708;51.848;107.620;2023-08-06T01:35:10;93780.28;;;18.91;100.00
59829;BME280;45708;51.848;107.620;2023-08-06T01:40:12;93773.72;;;19.19;100.00
59829;BME280;45708;51.848;107.620;2023-08-06T01:45:13;93783.94;;;19.62;100.00
59829;BME280;45708;51.848;107.620;2023-08-06T01:50:14;93789.00;;;19.94;100.00
59829;BME280;45708;51.848;107.620;2023-08-06T01:55:15;93790.09;;;20.33;100.00
59829;BME280;45708;51.848;107.620;2023-08-06T02:00:16;93789.94;;;20.38;100.00
59829;BME280;45708;51.848;107.620;2023-08-06T02:05:17;93784.50;;;20.03;100.00
59829;BME280;45708;51.848;107.620;2023-08-06T02:10:17;93776.94;;;20.05;100.00
59829;BME280;45708;51.848;107.620;2023-08-06T02:15:18;93778.25;;;20.25;100.00
59829;BME280;45708;51.848;107.620;2023-08-06T02:20:19;93773.47;;;20.53;100.00
59829;BME280;45708;51.848;107.620;2023-08-06T02:25:19;93774.28;;;20.80;100.00
59829;BME280;45708;51.848;107.620;2023-08-06T02:30:20;93772.25;;;20.94;100.00
59829;BME280;45708;51.848;107.620;2023-08-06T02:35:22;93770.34;;;21.12;99.67
59829;BME280;45708;51.848;107.620;2023-08-06T02:40:22;93771.94;;;21.39;99.13
59829;BME280;45708;51.848;107.620;2023-08-06T02:45:23;93766.78;;;21.80;98.69
59829;BME280;45708;51.848;107.620;2023-08-06T02:50:24;93765.41;;;22.51;97.18
59829;BME280;45708;51.848;107.620;2023-08-06T02:55:25;93761.41;;;23.28;95.23
59829;BME280;45708;51.848;107.620;2023-08-06T03:00:25;93749.78;;;23.15;94.18
59829;BME280;45708;51.848;107.620;2023-08-06T03:05:26;93755.38;;;22.89;94.34
59829;BME280;45708;51.848;107.620;2023-08-06T03:10:27;93752.69;;;22.60;94.52
59829;BME280;45708;51.848;107.620;2023-08-06T03:15:28;93752.16;;;22.45;94.30
59829;BME280;45708;51.848;107.620;2023-08-06T03:20:29;93750.31;;;22.58;93.29
59829;BME280;45708;51.848;107.620;2023-08-06T03:25:29;93748.56;;;22.92;92.57
59829;BME280;45708;51.848;107.620;2023-08-06T03:30:30;93725.63;;;23.40;91.75
59829;BME280;45708;51.848;107.620;2023-08-06T03:35:31;93700.03;;;23.79;89.09
59829;BME280;45708;51.848;107.620;2023-08-06T03:40:32;93732.75;;;24.14;87.58
59829;BME280;45708;51.848;107.620;2023-08-06T03:45:35;93732.69;;;24.35;86.90
59829;BME280;45708;51.848;107.620;2023-08-06T03:50:36;93712.75;;;24.64;86.32
59829;BME280;45708;51.848;107.620;2023-08-06T03:55:36;93723.66;;;25.20;84.53
59829;BME280;45708;51.848;107.620;2023-08-06T04:00:37;93724.09;;;25.50;83.30
59829;BME280;45708;51.848;107.620;2023-08-06T04:05:38;93710.38;;;25.70;82.14
59829;BME280;45708;51.848;107.620;2023-08-06T04:10:39;93709.13;;;25.24;81.87
59829;BME280;45708;51.848;107.620;2023-08-06T04:15:40;93716.34;;;24.55;82.16
59829;BME280;45708;51.848;107.620;2023-08-06T04:20:45;93717.34;;;23.90;82.63
59829;BME280;45708;51.848;107.620;2023-08-06T04:25:46;93727.53;;;23.39;83.09
59829;BME280;45708;51.848;107.620;2023-08-06T04:30:46;93710.63;;;22.76;84.00
59829;BME280;45708;51.848;107.620;2023-08-06T04:35:47;93710.41;;;22.01;85.52
59829;BME280;45708;51.848;107.620;2023-08-06T04:40:48;93714.78;;;21.76;86.03
59829;BME280;45708;51.848;107.620;2023-08-06T04:45:50;93714.19;;;21.62;86.02
59829;BME280;45708;51.848;107.620;2023-08-06T04:50:51;93716.78;;;21.50;86.19
59829;BME280;45708;51.848;107.620;2023-08-06T04:55:52;93714.13;;;21.07;86.56
59829;BME280;45708;51.848;107.620;2023-08-06T05:00:53;93700.66;;;20.29;89.01
59829;BME280;45708;51.848;107.620;2023-08-06T05:05:54;93716.31;;;19.87;91.87
59829;BME280;45708;51.848;107.620;2023-08-06T05:10:55;93697.03;;;19.45;93.95
59829;BME280;45708;51.848;107.620;2023-08-06T05:15:56;93724.78;;;19.50;94.55
59829;BME280;45708;51.848;107.620;2023-08-06T05:20:57;93727.47;;;19.50;95.87
59829;BME280;45708;51.848;107.620;2023-08-06T05:25:58;93712.88;;;19.56;96.46
59829;BME280;45708;51.848;107.620;2023-08-06T05:30:58;93708.69;;;19.81;97.37
59829;BME280;45708;51.848;107.620;2023-08-06T05:35:59;93707.75;;;20.25;98.01
59829;BME280;45708;51.848;107.620;2023-08-06T05:41:00;93711.75;;;20.53;98.22
59829;BME280;45708;51.848;107.620;2023-08-06T05:46:01;93702.91;;;20.96;98.37
59829;BME280;45708;51.848;107.620;2023-08-06T05:51:02;93703.84;;;21.17;98.29
59829;BME280;45708;51.848;107.620;2023-08-06T05:56:02;93696.72;;;21.39;98.59
59829;BME280;45708;51.848;107.620;2023-08-06T06:01:03;93700.28;;;21.69;98.54
59829;BME280;45708;51.848;107.620;2023-08-06T06:06:04;93690.97;;;21.96;98.68
59829;BME280;45708;51.848;107.620;2023-08-06T06:11:05;93693.47;;;22.01;98.72
59829;BME280;45708;51.848;107.620;2023-08-06T06:16:06;93682.97;;;22.25;99.24
59829;BME280;45708;51.848;107.620;2023-08-06T06:21:07;93682.88;;;22.63;98.96
59829;BME280;45708;51.848;107.620;2023-08-06T06:26:07;93678.75;;;23.20;97.84
59829;BME280;45708;51.848;107.620;2023-08-06T06:31:08;93676.78;;;23.74;97.12
59829;BME280;45708;51.848;107.620;2023-08-06T06:36:09;93667.63;;;23.54;95.42
59829;BME280;45708;51.848;107.620;2023-08-06T06:41:09;93678.09;;;22.81;95.64
59829;BME280;45708;51.848;107.620;2023-08-06T06:46:10;93682.31;;;22.49;96.38
59829;BME280;45708;51.848;107.620;2023-08-06T06:51:11;93677.84;;;22.32;96.76
59829;BME280;45708;51.848;107.620;2023-08-06T06:56:12;93688.50;;;22.50;96.92
59829;BME280;45708;51.848;107.620;2023-08-06T07:01:13;93686.50;;;22.80;96.33
59829;BME280;45708;51.848;107.620;2023-08-06T07:06:14;93684.69;;;23.13;96.18
59829;BME280;45708;51.848;107.620;2023-08-06T07:11:14;93686.81;;;23.08;95.39
59829;BME280;45708;51.848;107.620;2023-08-06T07:16:15;93693.97;;;23.03;94.05
59829;BME280;45708;51.848;107.620;2023-08-06T07:21:16;93697.25;;;23.21;93.59
59829;BME280;45708;51.848;107.620;2023-08-06T07:26:17;93709.09;;;23.29;93.98
59829;BME280;45708;51.848;107.620;2023-08-06T07:31:18;93702.19;;;23.52;93.96
59829;BME280;45708;51.848;107.620;2023-08-06T07:36:18;93703.78;;;23.53;93.30
59829;BME280;45708;51.848;107.620;2023-08-06T07:41:19;93696.31;;;23.71;93.29
59829;BME280;45708;51.848;107.620;2023-08-06T07:46:21;93705.22;;;23.96;92.63
59829;BME280;45708;51.848;107.620;2023-08-06T07:51:22;93697.56;;;23.98;92.16
59829;BME280;45708;51.848;107.620;2023-08-06T07:56:23;93700.53;;;24.30;93.16
59829;BME280;45708;51.848;107.620;2023-08-06T08:01:23;93692.94;;;24.60;93.43
59829;BME280;45708;51.848;107.620;2023-08-06T08:06:24;93695.00;;;24.50;92.57
59829;BME280;45708;51.848;107.620;2023-08-06T08:11:25;93707.72;;;24.38;92.45
59829;BME280;45708;51.848;107.620;2023-08-06T08:16:26;93705.47;;;24.27;92.92
59829;BME280;45708;51.848;107.620;2023-08-06T08:21:27;93702.44;;;24.29;92.68
59829;BME280;45708;51.848;107.620;2023-08-06T08:26:28;93692.41;;;24.05;91.97
59829;BME280;45708;51.848;107.620;2023-08-06T08:31:29;93691.63;;;24.05;92.20
59829;BME280;45708;51.848;107.620;2023-08-06T08:36:30;93674.41;;;24.21;92.82
59829;BME280;45708;51.848;107.620;2023-08-06T08:41:31;93688.81;;;24.38;93.03
59829;BME280;45708;51.848;107.620;2023-08-06T08:46:33;93681.41;;;24.35;93.19
59829;BME280;45708;51.848;107.620;2023-08-06T08:51:34;93695.31;;;24.00;91.18
59829;BME280;45708;51.848;107.620;2023-08-06T08:56:35;93685.19;;;23.73;92.67
59829;BME280;45708;51.848;107.620;2023-08-06T09:01:37;93691.28;;;23.94;93.05
59829;BME280;45708;51.848;107.620;2023-08-06T09:06:41;93683.41;;;24.13;93.25
59829;BME280;45708;51.848;107.620;2023-08-06T09:11:44;93675.31;;;24.25;92.71
59829;BME280;45708;51.848;107.620;2023-08-06T09:16:46;93676.88;;;24.51;92.50
59829;BME280;45708;51.848;107.620;2023-08-06T09:21:51;93669.88;;;24.62;92.30
59829;BME280;45708;51.848;107.620;2023-08-06T09:26:52;93666.72;;;24.72;92.36
59829;BME280;45708;51.848;107.620;2023-08-06T09:31:53;93672.72;;;24.66;91.30
59829;BME280;45708;51.848;107.620;2023-08-06T09:36:54;93681.16;;;24.15;91.52
59829;BME280;45708;51.848;107.620;2023-08-06T09:41:56;93667.91;;;24.10;92.08
59829;BME280;45708;51.848;107.620;2023-08-06T09:46:59;93677.34;;;24.16;91.39
59829;BME280;45708;51.848;107.620;2023-08-06T09:52:00;93678.03;;;24.13;91.88
59829;BME280;45708;51.848;107.620;2023-08-06T09:57:01;93686.44;;;23.87;91.48
59829;BME280;45708;51.848;107.620;2023-08-06T10:02:04;93686.53;;;23.66;91.90
59829;BME280;45708;51.848;107.620;2023-08-06T10:07:11;93686.44;;;23.42;92.11
59829;BME280;45708;51.848;107.620;2023-08-06T10:12:12;93686.53;;;23.00;92.84
59829;BME280;45708;51.848;107.620;2023-08-06T10:17:13;93689.09;;;22.76;92.87
59829;BME280;45708;51.848;107.620;2023-08-06T10:22:15;93687.59;;;22.45;93.14
59829;BME280;45708;51.848;107.620;2023-08-06T10:27:31;93704.50;;;22.16;93.07
59829;BME280;45708;51.848;107.620;2023-08-06T10:32:50;93709.63;;;22.01;93.16
59829;BME280;45708;51.848;107.620;2023-08-06T10:37:51;93696.75;;;21.85;93.94
59829;BME280;45708;51.848;107.620;2023-08-06T10:42:52;93706.53;;;21.81;94.33
59829;BME280;45708;51.848;107.620;2023-08-06T10:47:53;93707.19;;;21.78;94.82
59829;BME280;45708;51.848;107.620;2023-08-06T10:52:54;93711.63;;;21.74;95.14
59829;BME280;45708;51.848;107.620;2023-08-06T10:57:55;93705.78;;;21.72;95.40
59829;BME280;45708;51.848;107.620;2023-08-06T11:02:56;93711.81;;;21.69;95.76
59829;BME280;45708;51.848;107.620;2023-08-06T11:07:57;93707.25;;;21.61;95.43
59829;BME280;45708;51.848;107.620;2023-08-06T11:13:01;93718.34;;;21.51;95.87
59829;BME280;45708;51.848;107.620;2023-08-06T11:18:02;93722.78;;;21.47;95.67
59829;BME280;45708;51.848;107.620;2023-08-06T11:23:03;93722.47;;;21.40;95.79
59829;BME280;45708;51.848;107.620;2023-08-06T11:28:04;93725.03;;;21.28;95.68
59829;BME280;45708;51.848;107.620;2023-08-06T11:33:07;93735.94;;;21.22;95.74
59829;BME280;45708;51.848;107.620;2023-08-06T11:38:08;93729.75;;;21.13;95.58
59829;BME280;45708;51.848;107.620;2023-08-06T11:43:09;93732.78;;;21.03;95.78
59829;BME280;45708;51.848;107.620;2023-08-06T11:48:10;93721.72;;;20.87;95.80
59829;BME280;45708;51.848;107.620;2023-08-06T11:53:13;93740.38;;;20.84;95.91
59829;BME280;45708;51.848;107.620;2023-08-06T11:58:16;93736.88;;;20.75;95.88
59829;BME280;45708;51.848;107.620;2023-08-06T12:03:19;93741.44;;;20.65;95.98
59829;BME280;45708;51.848;107.620;2023-08-06T12:08:20;93745.53;;;20.54;95.85
59829;BME280;45708;51.848;107.620;2023-08-06T12:13:20;93753.09;;;20.44;95.90
59829;BME280;45708;51.848;107.620;2023-08-06T12:18:21;93759.03;;;20.32;95.79
59829;BME280;45708;51.848;107.620;2023-08-06T12:23:22;93762.59;;;20.19;95.84
59829;BME280;45708;51.848;107.620;2023-08-06T12:28:23;93775.34;;;20.04;95.67
59829;BME280;45708;51.848;107.620;2023-08-06T12:33:24;93774.66;;;19.90;95.90
59829;BME280;45708;51.848;107.620;2023-08-06T12:38:24;93771.56;;;19.74;95.71
59829;BME280;45708;51.848;107.620;2023-08-06T12:43:25;93782.75;;;19.68;95.92
59829;BME280;45708;51.848;107.620;2023-08-06T12:48:26;93786.63;;;19.62;95.85
59829;BME280;45708;51.848;107.620;2023-08-06T12:53:27;93795.69;;;19.52;95.78
59829;BME280;45708;51.848;107.620;2023-08-06T12:58:27;93793.94;;;19.48;95.78
59829;BME280;45708;51.848;107.620;2023-08-06T13:03:28;93805.84;;;19.41;95.91
59829;BME280;45708;51.848;107.620;2023-08-06T13:08:29;93801.09;;;19.38;95.86
59829;BME280;45708;51.848;107.620;2023-08-06T13:13:30;93803.59;;;19.35;95.82
59829;BME280;45708;51.848;107.620;2023-08-06T13:18:30;93806.28;;;19.35;95.84
59829;BME280;45708;51.848;107.620;2023-08-06T13:23:31;93805.31;;;19.31;95.73
59829;BME280;45708;51.848;107.620;2023-08-06T13:28:32;93811.09;;;19.24;95.72
59829;BME280;45708;51.848;107.620;2023-08-06T13:33:33;93793.31;;;19.06;95.71
59829;BME280;45708;51.848;107.620;2023-08-06T13:38:34;93810.00;;;19.03;95.65
59829;BME280;45708;51.848;107.620;2023-08-06T13:43:34;93806.44;;;18.94;95.61
59829;BME280;45708;51.848;107.620;2023-08-06T13:48:35;93804.50;;;18.86;95.76
59829;BME280;45708;51.848;107.620;2023-08-06T13:53:37;93817.75;;;18.91;95.67
59829;BME280;45708;51.848;107.620;2023-08-06T13:58:38;93800.91;;;18.90;95.54
59829;BME280;45708;51.848;107.620;2023-08-06T14:03:39;93801.09;;;18.94;94.98
59829;BME280;45708;51.848;107.620;2023-08-06T14:08:40;93801.69;;;18.91;95.03
59829;BME280;45708;51.848;107.620;2023-08-06T14:13:40;93808.25;;;18.84;94.81
59829;BME280;45708;51.848;107.620;2023-08-06T14:18:41;93798.75;;;18.78;94.61
59829;BME280;45708;51.848;107.620;2023-08-06T14:23:42;93795.69;;;18.71;94.77
59829;BME280;45708;51.848;107.620;2023-08-06T14:28:43;93793.44;;;18.65;94.79
59829;BME280;45708;51.848;107.620;2023-08-06T14:33:43;93795.97;;;18.56;94.60
59829;BME280;45708;51.848;107.620;2023-08-06T14:38:45;93795.19;;;18.55;94.41
59829;BME280;45708;51.848;107.620;2023-08-06T14:43:46;93784.72;;;18.45;94.27
59829;BME280;45708;51.848;107.620;2023-08-06T14:48:47;93794.03;;;18.48;93.91
59829;BME280;45708;51.848;107.620;2023-08-06T14:53:48;93779.56;;;18.49;93.30
59829;BME280;45708;51.848;107.620;2023-08-06T14:58:48;93778.47;;;18.50;92.34
59829;BME280;45708;51.848;107.620;2023-08-06T15:03:49;93771.66;;;18.44;91.17
59829;BME280;45708;51.848;107.620;2023-08-06T15:08:50;93788.69;;;18.48;90.82
59829;BME280;45708;51.848;107.620;2023-08-06T15:13:51;93784.50;;;18.42;90.41
59829;BME280;45708;51.848;107.620;2023-08-06T15:18:52;93798.38;;;18.44;90.15
59829;BME280;45708;51.848;107.620;2023-08-06T15:23:54;93802.16;;;18.43;89.87
59829;BME280;45708;51.848;107.620;2023-08-06T15:28:54;93799.25;;;18.39;90.14
59829;BME280;45708;51.848;107.620;2023-08-06T15:33:55;93803.75;;;18.30;90.41
59829;BME280;45708;51.848;107.620;2023-08-06T15:38:56;93807.50;;;18.15;90.81
59829;BME280;45708;51.848;107.620;2023-08-06T15:43:57;93811.66;;;18.08;91.13
59829;BME280;45708;51.848;107.620;2023-08-06T15:48:57;93811.34;;;17.96;91.51
59829;BME280;45708;51.848;107.620;2023-08-06T15:53:58;93817.56;;;17.91;91.46
59829;BME280;45708;51.848;107.620;2023-08-06T15:59:23;93816.59;;;17.87;91.48
59829;BME280;45708;51.848;107.620;2023-08-06T16:04:26;93802.50;;;17.81;91.57
59829;BME280;45708;51.848;107.620;2023-08-06T16:09:26;93818.38;;;17.91;91.64
59829;BME280;45708;51.848;107.620;2023-08-06T16:14:27;93817.69;;;17.86;91.73
59829;BME280;45708;51.848;107.620;2023-08-06T16:19:28;93807.66;;;17.78;91.68
59829;BME280;45708;51.848;107.620;2023-08-06T16:24:29;93814.00;;;17.82;91.82
59829;BME280;45708;51.848;107.620;2023-08-06T16:29:29;93807.84;;;17.81;91.49
59829;BME280;45708;51.848;107.620;2023-08-06T16:34:30;93807.66;;;17.78;91.52
59829;BME280;45708;51.848;107.620;2023-08-06T16:39:31;93795.78;;;17.70;91.40
59829;BME280;45708;51.848;107.620;2023-08-06T16:44:32;93805.38;;;17.71;91.46
59829;BME280;45708;51.848;107.620;2023-08-06T16:49:33;93803.56;;;17.67;91.30
59829;BME280;45708;51.848;107.620;2023-08-06T16:54:34;93803.91;;;17.79;91.32
59829;BME280;45708;51.848;107.620;2023-08-06T16:59:34;93791.63;;;17.78;91.23
59829;BME280;45708;51.848;107.620;2023-08-06T17:04:35;93796.81;;;17.88;91.31
59829;BME280;45708;51.848;107.620;2023-08-06T17:09:36;93794.13;;;17.88;91.20
59829;BME280;45708;51.848;107.620;2023-08-06T17:14:37;93794.13;;;17.88;91.16
59829;BME280;45708;51.848;107.620;2023-08-06T17:19:37;93785.19;;;17.79;91.31
59829;BME280;45708;51.848;107.620;2023-08-06T17:24:38;93795.97;;;17.74;91.23
59829;BME280;45708;51.848;107.620;2023-08-06T17:29:39;93804.59;;;17.71;91.32
59829;BME280;45708;51.848;107.620;2023-08-06T17:34:40;93804.78;;;17.74;91.28
59829;BME280;45708;51.848;107.620;2023-08-06T17:39:41;93800.72;;;17.77;91.12
59829;BME280;45708;51.848;107.620;2023-08-06T17:44:41;93804.09;;;17.69;91.31
59829;BME280;45708;51.848;107.620;2023-08-06T17:49:42;93809.44;;;17.69;91.36
59829;BME280;45708;51.848;107.620;2023-08-06T17:54:43;93803.22;;;17.54;91.03
59829;BME280;45708;51.848;107.620;2023-08-06T17:59:44;93803.22;;;17.54;91.01
59829;BME280;45708;51.848;107.620;2023-08-06T18:04:44;93793.72;;;17.48;91.04
59829;BME280;45708;51.848;107.620;2023-08-06T18:09:45;93801.66;;;17.53;90.99
59829;BME280;45708;51.848;107.620;2023-08-06T18:14:46;93793.13;;;17.51;90.92
59829;BME280;45708;51.848;107.620;2023-08-06T18:19:47;93797.72;;;17.64;90.95
59829;BME280;45708;51.848;107.620;2023-08-06T18:24:47;93789.06;;;17.73;90.67
59829;BME280;45708;51.848;107.620;2023-08-06T18:29:49;93793.81;;;17.76;90.61
59829;BME280;45708;51.848;107.620;2023-08-06T18:34:50;93806.16;;;17.72;90.01
59829;BME280;45708;51.848;107.620;2023-08-06T18:39:51;93804.81;;;17.55;89.64
59829;BME280;45708;51.848;107.620;2023-08-06T18:44:51;93812.31;;;17.53;89.75
59829;BME280;45708;51.848;107.620;2023-08-06T18:49:52;93808.88;;;17.53;89.79
59829;BME280;45708;51.848;107.620;2023-08-06T18:54:53;93812.81;;;17.55;89.74
59829;BME280;45708;51.848;107.620;2023-08-06T18:59:54;93818.38;;;17.59;89.85
59829;BME280;45708;51.848;107.620;2023-08-06T19:04:56;93823.88;;;17.68;89.79
59829;BME280;45708;51.848;107.620;2023-08-06T19:09:57;93828.63;;;17.71;89.55
59829;BME280;45708;51.848;107.620;2023-08-06T19:14:57;93833.19;;;17.70;89.77
59829;BME280;45708;51.848;107.620;2023-08-06T19:19:58;93840.19;;;17.80;89.75
59829;BME280;45708;51.848;107.620;2023-08-06T19:24:59;93842.72;;;17.90;89.70
59829;BME280;45708;51.848;107.620;2023-08-06T19:30:00;93841.81;;;17.94;89.60
59829;BME280;45708;51.848;107.620;2023-08-06T19:35:01;93850.94;;;17.93;89.92
59829;BME280;45708;51.848;107.620;2023-08-06T19:40:02;93849.03;;;17.94;89.88
59829;BME280;45708;51.848;107.620;2023-08-06T19:45:03;93842.31;;;17.83;89.83
59829;BME280;45708;51.848;107.620;2023-08-06T19:50:04;93858.84;;;17.85;89.95
59829;BME280;45708;51.848;107.620;2023-08-06T19:55:06;93845.84;;;17.78;90.25
59829;BME280;45708;51.848;107.620;2023-08-06T20:00:07;93854.59;;;17.84;90.29
59829;BME280;45708;51.848;107.620;2023-08-06T20:05:08;93850.22;;;17.88;90.12
59829;BME280;45708;51.848;107.620;2023-08-06T20:10:09;93854.00;;;17.87;90.15
59829;BME280;45708;51.848;107.620;2023-08-06T20:15:10;93860.41;;;17.86;90.23
59829;BME280;45708;51.848;107.620;2023-08-06T20:20:11;93858.34;;;17.83;90.42
59829;BME280;45708;51.848;107.620;2023-08-06T20:25:11;93855.94;;;17.81;90.24
59829;BME280;45708;51.848;107.620;2023-08-06T20:30:12;93849.59;;;17.77;90.31
59829;BME280;45708;51.848;107.620;2023-08-06T20:35:13;93851.56;;;17.72;90.42
59829;BME280;45708;51.848;107.620;2023-08-06T20:40:14;93842.63;;;17.62;90.55
59829;BME280;45708;51.848;107.620;2023-08-06T20:45:15;93844.78;;;17.60;90.43
59829;BME280;45708;51.848;107.620;2023-08-06T20:50:16;93841.69;;;17.53;90.63
59829;BME280;45708;51.848;107.620;2023-08-06T20:55:16;93837.06;;;17.59;90.71
59829;BME280;45708;51.848;107.620;2023-08-06T21:00:17;93837.50;;;17.66;90.37
59829;BME280;45708;51.848;107.620;2023-08-06T21:05:18;93841.25;;;17.65;90.58
59829;BME280;45708;51.848;107.620;2023-08-06T21:10:19;93842.63;;;17.62;90.82
59829;BME280;45708;51.848;107.620;2023-08-06T21:15:20;93849.19;;;17.70;90.77
59829;BME280;45708;51.848;107.620;2023-08-06T21:20:21;93843.97;;;17.79;90.64
59829;BME280;45708;51.848;107.620;2023-08-06T21:25:21;93832.78;;;17.77;90.57
59829;BME280;45708;51.848;107.620;2023-08-06T21:30:22;93845.25;;;17.81;90.63
59829;BME280;45708;51.848;107.620;2023-08-06T21:35:23;93840.78;;;17.77;90.63
59829;BME280;45708;51.848;107.620;2023-08-06T21:40:24;93855.72;;;17.78;90.68
59829;BME280;45708;51.848;107.620;2023-08-06T21:45:24;93843.47;;;17.77;90.72
59829;BME280;45708;51.848;107.620;2023-08-06T21:50:25;93842.88;;;17.80;90.60
59829;BME280;45708;51.848;107.620;2023-08-06T21:55:29;93848.31;;;17.75;90.71
59829;BME280;45708;51.848;107.620;2023-08-06T22:00:32;93851.38;;;17.82;90.44
59829;BME280;45708;51.848;107.620;2023-08-06T22:05:33;93852.59;;;17.89;90.51
59829;BME280;45708;51.848;107.620;2023-08-06T22:10:34;93857.47;;;18.01;90.50
59829;BME280;45708;51.848;107.620;2023-08-06T22:15:35;93866.28;;;18.15;90.38
59829;BME280;45708;51.848;107.620;2023-08-06T22:20:35;93863.41;;;18.12;90.11
59829;BME280;45708;51.848;107.620;2023-08-06T22:25:36;93866.84;;;17.99;90.40
59829;BME280;45708;51.848;107.620;2023-08-06T22:30:37;93860.31;;;17.91;90.78
59829;BME280;45708;51.848;107.620;2023-08-06T22:35:38;93861.50;;;17.85;90.48
59829;BME280;45708;51.848;107.620;2023-08-06T22:40:38;93857.56;;;17.96;90.14
59829;BME280;45708;51.848;107.620;2023-08-06T22:45:39;93867.28;;;18.06;89.59
59829;BME280;45708;51.848;107.620;2023-08-06T22:50:40;93872.44;;;18.16;89.18
59829;BME280;45708;51.848;107.620;2023-08-06T22:55:41;93865.31;;;18.25;88.21
59829;BME280;45708;51.848;107.620;2023-08-06T23:00:42;93853.63;;;18.21;87.86
59829;BME280;45708;51.848;107.620;2023-08-06T23:05:42;93863.75;;;18.24;87.21
59829;BME280;45708;51.848;107.620;2023-08-06T23:10:43;93870.88;;;18.29;86.66
59829;BME280;45708;51.848;107.620;2023-08-06T23:15:44;93877.81;;;18.30;86.27
59829;BME280;45708;51.848;107.620;2023-08-06T23:20:45;93879.88;;;18.33;85.48
59829;BME280;45708;51.848;107.620;2023-08-06T23:25:46;93884.72;;;18.31;84.86
59829;BME280;45708;51.848;107.620;2023-08-06T23:30:46;93887.91;;;18.33;84.78
59829;BME280;45708;51.848;107.620;2023-08-06T23:35:47;93892.06;;;18.39;84.16
59829;BME280;45708;51.848;107.620;2023-08-06T23:40:48;93890.47;;;18.38;83.68
59829;BME280;45708;51.848;107.620;2023-08-06T23:45:49;93888.88;;;18.37;83.23
59829;BME280;45708;51.848;107.620;2023-08-06T23:50:50;93893.25;;;18.33;83.00
59829;BME280;45708;51.848;107.620;2023-08-06T23:55:51;93901.47;;;18.36;82.46
